Terminal Aerodrome Forecast
Issued by NWS

Home | Current Version | Previous Version | Text Only | Print | Product List | Glossary On
Versions: 1 2 3 4 5 6 7 8 9 10 11 12 13 14 15 16 17 18
893
FTPA31 PHFO 221728
TAFHMK
TAF
PHMK 221728Z 2218/2318 04011G18KT P6SM VCSH SCT025 OVC040
     FM222000 04014G22KT P6SM SCT025 BKN050
     FM230600 04011KT P6SM VCSH SCT025 BKN045=

USA.gov is the U.S. government's official web portal to all federal, state and local government web resources and services.